createdAt,value
2023-05-19T00:02:26.283Z,15.75
2023-05-19T00:04:55.103Z,11.57
2023-05-19T00:07:29.101Z,13.57
2023-05-19T00:09:57.988Z,13.70
2023-05-19T00:12:27.005Z,14.02
2023-05-19T00:14:55.637Z,14.25
2023-05-19T00:17:26.364Z,13.85
2023-05-19T00:19:54.760Z,12.73
2023-05-19T00:22:22.952Z,9.90
2023-05-19T00:24:51.674Z,14.73
2023-05-19T00:27:20.136Z,11.77
2023-05-19T00:29:48.542Z,12.82
2023-05-19T00:32:17.024Z,11.57
2023-05-19T00:34:48.614Z,15.20
2023-05-19T00:37:18.420Z,10.90
2023-05-19T00:39:46.947Z,10.10
2023-05-19T00:42:15.722Z,11.10
2023-05-19T00:44:44.065Z,11.50
2023-05-19T00:47:12.332Z,10.95
2023-05-19T00:49:41.094Z,13.15
2023-05-19T00:52:11.639Z,12.27
2023-05-19T00:54:40.437Z,10.10
2023-05-19T00:57:08.872Z,15.85
2023-05-19T00:59:37.474Z,14.90
2023-05-19T01:02:06.874Z,12.95
2023-05-19T01:04:39.511Z,13.60
2023-05-19T01:07:08.369Z,12.65
2023-05-19T01:09:38.490Z,10.30
2023-05-19T01:12:10.246Z,14.10
2023-05-19T01:14:39.032Z,10.82
2023-05-19T01:17:11.910Z,12.13
2023-05-19T01:19:56.489Z,11.80
2023-05-19T01:22:42.827Z,14.48
2023-05-19T01:25:43.931Z,14.45
2023-05-19T01:28:54.225Z,10.60
2023-05-19T01:31:25.600Z,12.45
2023-05-19T01:33:55.833Z,13.30
2023-05-19T01:36:27.054Z,8.02
2023-05-19T01:41:26.273Z,10.97
2023-05-19T01:43:54.876Z,11.48
2023-05-19T01:46:25.668Z,9.85
2023-05-19T01:51:23.124Z,11.40
2023-05-19T01:53:51.483Z,11.52
2023-05-19T01:56:28.569Z,8.70
2023-05-19T01:59:05.511Z,11.02
2023-05-19T02:01:46.044Z,10.20
2023-05-19T02:04:22.411Z,10.20
2023-05-19T02:06:59.794Z,11.65
2023-05-19T02:09:35.939Z,13.23
2023-05-19T02:12:10.360Z,11.23
2023-05-19T02:14:42.864Z,11.00
2023-05-19T02:17:15.619Z,10.00
2023-05-19T02:19:45.119Z,10.43
2023-05-19T02:22:14.009Z,13.87
2023-05-19T02:24:44.368Z,12.65
2023-05-19T02:27:13.323Z,7.13
2023-05-19T02:29:41.959Z,10.63
2023-05-19T02:32:12.545Z,12.27
2023-05-19T02:34:42.222Z,11.43
2023-05-19T02:37:10.686Z,8.95
2023-05-19T02:39:38.983Z,13.60
2023-05-19T02:42:07.714Z,13.82
2023-05-19T02:44:36.115Z,11.68
2023-05-19T02:47:04.566Z,13.95
2023-05-19T02:49:36.057Z,11.57
2023-05-19T02:52:04.897Z,9.63
2023-05-19T02:54:33.777Z,11.90
2023-05-19T02:57:03.147Z,12.32
2023-05-19T02:59:31.632Z,11.48
2023-05-19T03:02:01.609Z,12.20
2023-05-19T03:04:30.311Z,10.95
2023-05-19T03:07:00.182Z,15.25
2023-05-19T03:09:28.573Z,17.23
2023-05-19T03:11:56.855Z,11.02
2023-05-19T03:14:25.227Z,13.93
2023-05-19T03:16:53.804Z,9.95
2023-05-19T03:19:22.502Z,11.70
2023-05-19T03:21:51.583Z,10.68
2023-05-19T03:24:21.327Z,10.27
2023-05-19T03:26:50.346Z,17.25
2023-05-19T03:29:18.623Z,10.73
2023-05-19T03:31:47.560Z,9.57
2023-05-19T03:34:18.052Z,9.93
2023-05-19T03:36:46.400Z,16.38
2023-05-19T03:39:17.570Z,9.98
2023-05-19T03:41:49.855Z,10.07
2023-05-19T03:44:18.254Z,12.15
2023-05-19T03:46:46.598Z,11.80
2023-05-19T03:49:31.700Z,10.23
2023-05-19T03:52:38.907Z,10.73
2023-05-19T03:55:46.550Z,12.15
2023-05-19T03:58:16.721Z,10.35
2023-05-19T04:00:45.541Z,12.07
2023-05-19T04:03:14.998Z,13.35
2023-05-19T04:05:43.647Z,11.43
2023-05-19T04:08:12.172Z,11.45
2023-05-19T04:10:42.036Z,15.85
2023-05-19T04:13:11.433Z,10.77
2023-05-19T04:15:41.539Z,14.15
2023-05-19T04:18:10.904Z,12.80
2023-05-19T04:20:42.211Z,12.38
2023-05-19T04:23:10.936Z,12.40
2023-05-19T04:25:40.934Z,10.00
2023-05-19T04:28:09.600Z,10.32
2023-05-19T04:30:39.941Z,13.77
2023-05-19T04:33:09.274Z,11.97
2023-05-19T04:35:38.179Z,14.80
2023-05-19T04:38:07.858Z,10.93
2023-05-19T04:40:37.204Z,13.55
2023-05-19T04:43:07.497Z,16.95
2023-05-19T04:45:37.614Z,12.98
2023-05-19T04:48:12.128Z,12.65
2023-05-19T04:50:42.190Z,14.98
2023-05-19T04:53:11.450Z,17.75
2023-05-19T04:55:40.373Z,16.17
2023-05-19T04:58:09.084Z,13.18
2023-05-19T05:00:38.791Z,12.35
2023-05-19T05:03:10.613Z,9.05
2023-05-19T05:05:40.466Z,11.52
2023-05-19T05:08:11.235Z,14.73
2023-05-19T05:10:44.322Z,14.73
2023-05-19T05:13:13.182Z,14.57
2023-05-19T05:15:42.634Z,12.77
2023-05-19T05:18:15.289Z,13.85
2023-05-19T05:20:46.564Z,12.68
2023-05-19T05:23:16.736Z,11.18
2023-05-19T05:25:48.984Z,14.18
2023-05-19T05:28:18.569Z,18.27
2023-05-19T05:30:49.246Z,17.08
2023-05-19T05:33:19.548Z,15.80
2023-05-19T05:35:48.206Z,15.18
2023-05-19T05:38:16.592Z,15.70
2023-05-19T05:40:44.978Z,12.93
2023-05-19T05:43:13.553Z,11.05
2023-05-19T05:46:03.838Z,14.13
2023-05-19T05:48:34.784Z,12.15
2023-05-19T05:53:40.638Z,9.75
2023-05-19T05:56:11.676Z,13.70
2023-05-19T05:58:47.570Z,15.32
2023-05-19T06:01:18.116Z,14.98
2023-05-19T06:03:48.034Z,14.13
2023-05-19T06:06:21.937Z,12.85
2023-05-19T06:08:50.629Z,14.80
2023-05-19T06:11:19.989Z,14.27
2023-05-19T06:13:49.391Z,16.90
2023-05-19T06:16:33.790Z,13.23
2023-05-19T06:19:03.789Z,14.55
2023-05-19T06:21:32.591Z,11.68
2023-05-19T06:24:01.301Z,17.45
2023-05-19T06:26:29.651Z,15.82
2023-05-19T06:28:58.612Z,13.20
2023-05-19T06:31:28.038Z,14.25
2023-05-19T06:33:59.698Z,12.40
2023-05-19T06:36:29.813Z,12.27
2023-05-19T06:39:01.214Z,16.27
2023-05-19T06:41:32.847Z,15.40
2023-05-19T06:44:01.960Z,14.25
2023-05-19T06:46:34.533Z,14.38
2023-05-19T06:49:03.648Z,12.10
2023-05-19T06:51:37.529Z,14.13
2023-05-19T06:54:06.784Z,14.60
2023-05-19T06:56:35.113Z,12.48
2023-05-19T06:59:04.971Z,9.70
2023-05-19T07:01:38.768Z,13.88
2023-05-19T07:04:07.486Z,13.32
2023-05-19T07:06:37.566Z,14.50
2023-05-19T07:09:06.861Z,13.75
2023-05-19T07:11:37.148Z,12.15
2023-05-19T07:14:07.474Z,14.40
2023-05-19T07:16:35.865Z,11.32
2023-05-19T07:19:04.630Z,11.10
2023-05-19T07:21:34.228Z,9.63
2023-05-19T07:24:04.894Z,11.18
2023-05-19T07:26:33.332Z,13.73
2023-05-19T07:29:02.052Z,10.90
2023-05-19T07:31:30.547Z,13.90
2023-05-19T07:34:00.376Z,12.27
2023-05-19T07:36:29.112Z,12.90
2023-05-19T07:38:57.413Z,12.35
2023-05-19T07:41:27.705Z,12.50
2023-05-19T07:43:56.170Z,12.20
2023-05-19T07:46:25.043Z,15.48
2023-05-19T07:48:53.673Z,10.77
2023-05-19T07:51:22.312Z,11.70
2023-05-19T07:53:51.389Z,14.48
2023-05-19T07:56:20.292Z,17.42
2023-05-19T07:58:49.890Z,12.07
2023-05-19T08:01:18.470Z,11.10
2023-05-19T08:03:47.068Z,12.23
2023-05-19T08:06:15.879Z,16.60
2023-05-19T08:08:44.355Z,12.88
2023-05-19T08:11:12.697Z,14.40
2023-05-19T08:13:41.383Z,11.95
2023-05-19T08:16:11.230Z,12.27
2023-05-19T08:18:39.683Z,11.27
2023-05-19T08:21:08.182Z,12.43
2023-05-19T08:23:37.443Z,12.05
2023-05-19T08:26:06.188Z,13.13
2023-05-19T08:28:35.768Z,12.93
2023-05-19T08:31:04.241Z,14.13
2023-05-19T08:33:34.191Z,14.63
2023-05-19T08:36:02.681Z,9.90
2023-05-19T08:38:31.594Z,9.10
2023-05-19T08:41:00.147Z,12.18
2023-05-19T08:43:28.990Z,12.52
2023-05-19T08:45:57.603Z,11.93
2023-05-19T08:48:26.478Z,14.18
2023-05-19T08:51:08.409Z,12.40
2023-05-19T08:53:41.455Z,24.02
2023-05-19T08:56:14.300Z,29.02
2023-05-19T08:58:44.267Z,14.65
2023-05-19T09:01:16.863Z,12.82
2023-05-19T09:03:46.381Z,17.88
2023-05-19T09:06:17.045Z,12.75
2023-05-19T09:11:14.548Z,13.70
2023-05-19T09:13:43.863Z,12.32
2023-05-19T09:16:13.316Z,20.73
2023-05-19T09:18:56.063Z,11.25
2023-05-19T09:21:31.553Z,17.80
2023-05-19T09:24:05.017Z,12.15
2023-05-19T09:26:38.543Z,14.48
2023-05-19T09:29:14.024Z,12.13
2023-05-19T09:31:50.471Z,15.25
2023-05-19T09:34:19.500Z,25.30
2023-05-19T09:36:50.810Z,13.02
2023-05-19T09:39:20.366Z,11.43
2023-05-19T09:41:52.406Z,10.98
2023-05-19T09:44:24.592Z,9.43
2023-05-19T09:46:54.015Z,10.45
2023-05-19T09:49:22.814Z,35.28
2023-05-19T09:51:55.558Z,15.65
2023-05-19T09:54:24.817Z,16.42
2023-05-19T09:56:58.615Z,24.73
2023-05-19T09:59:30.465Z,11.18
2023-05-19T10:02:01.608Z,10.82
2023-05-19T10:04:31.540Z,12.88
2023-05-19T10:07:05.822Z,11.35
2023-05-19T10:09:36.189Z,11.57
2023-05-19T10:12:05.655Z,11.25
2023-05-19T10:14:33.938Z,13.30
2023-05-19T10:17:02.807Z,10.30
2023-05-19T10:19:31.280Z,11.68
2023-05-19T10:22:01.229Z,14.10
2023-05-19T10:24:43.866Z,10.82
2023-05-19T10:27:20.560Z,14.95
2023-05-19T10:29:51.966Z,15.35
2023-05-19T10:32:24.597Z,16.52
2023-05-19T10:35:19.053Z,11.77
2023-05-19T10:38:00.895Z,13.13
2023-05-19T10:40:37.270Z,12.35
2023-05-19T10:43:23.047Z,33.25
2023-05-19T10:45:54.384Z,15.10
2023-05-19T10:48:23.251Z,13.00
2023-05-19T10:50:55.688Z,11.63
2023-05-19T10:53:32.643Z,12.68
2023-05-19T10:56:04.256Z,15.98
2023-05-19T10:58:52.459Z,13.70
2023-05-19T11:01:22.311Z,11.82
2023-05-19T11:03:54.019Z,13.85
2023-05-19T11:06:27.222Z,11.95
2023-05-19T11:09:00.743Z,14.27
2023-05-19T11:11:45.774Z,13.68
2023-05-19T11:14:15.597Z,13.73
2023-05-19T11:16:45.804Z,14.60
2023-05-19T11:19:20.544Z,13.73
2023-05-19T11:21:50.594Z,15.95
2023-05-19T11:24:40.191Z,14.93
2023-05-19T11:27:22.212Z,13.15
2023-05-19T11:29:51.775Z,12.98
2023-05-19T11:32:22.725Z,12.93
2023-05-19T11:34:52.529Z,11.77
2023-05-19T11:37:21.066Z,12.10
2023-05-19T11:39:50.990Z,13.82
2023-05-19T11:42:20.715Z,11.48
2023-05-19T11:44:50.017Z,13.13
2023-05-19T11:47:18.713Z,13.13
2023-05-19T11:49:49.578Z,14.88
2023-05-19T11:52:18.750Z,13.35
2023-05-19T11:54:51.241Z,14.73
2023-05-19T11:57:21.095Z,17.15
2023-05-19T11:59:52.256Z,13.77
2023-05-19T12:02:22.473Z,13.02
2023-05-19T12:04:51.465Z,11.38
2023-05-19T12:07:23.095Z,17.13
2023-05-19T12:09:53.928Z,36.67
2023-05-19T12:12:23.965Z,20.95
2023-05-19T12:14:53.600Z,17.35
2023-05-19T12:17:24.402Z,13.63
2023-05-19T12:22:21.595Z,12.52
2023-05-19T12:24:52.671Z,13.40
2023-05-19T12:27:22.527Z,14.52
2023-05-19T12:29:54.760Z,16.40
2023-05-19T12:32:25.683Z,13.82
2023-05-19T12:34:54.897Z,12.75
2023-05-19T12:37:27.861Z,14.25
2023-05-19T12:39:58.530Z,17.70
2023-05-19T12:45:03.139Z,12.55
2023-05-19T12:47:45.300Z,14.90
2023-05-19T12:50:14.757Z,12.30
2023-05-19T12:52:44.771Z,13.75
2023-05-19T12:55:17.741Z,14.83
2023-05-19T12:57:50.686Z,14.60
2023-05-19T13:00:21.203Z,45.28
2023-05-19T13:02:59.785Z,22.45
2023-05-19T13:05:29.376Z,19.02
2023-05-19T13:07:59.372Z,16.52
2023-05-19T13:10:31.452Z,17.52
2023-05-19T13:13:01.300Z,14.18
2023-05-19T13:15:32.100Z,13.75
2023-05-19T13:18:02.413Z,12.50
2023-05-19T13:20:31.846Z,16.58
2023-05-19T13:23:00.771Z,12.15
2023-05-19T13:25:36.067Z,14.73
2023-05-19T13:28:06.079Z,14.02
2023-05-19T13:30:35.799Z,13.35
2023-05-19T13:33:07.876Z,11.23
2023-05-19T13:35:38.391Z,13.57
2023-05-19T13:38:09.667Z,11.32
2023-05-19T13:40:46.087Z,13.27
2023-05-19T13:43:14.601Z,14.05
2023-05-19T13:45:44.761Z,12.07
2023-05-19T13:48:13.224Z,13.10
2023-05-19T13:50:41.790Z,13.73
2023-05-19T13:53:11.430Z,16.00
2023-05-19T13:55:41.768Z,13.20
2023-05-19T13:58:11.061Z,15.70
2023-05-19T14:00:39.793Z,11.35
2023-05-19T14:03:08.582Z,17.67
2023-05-19T14:05:37.609Z,12.57
2023-05-19T14:08:09.187Z,10.55
2023-05-19T14:10:37.985Z,11.13
2023-05-19T14:15:42.440Z,11.43
2023-05-19T14:18:11.122Z,12.35
2023-05-19T14:20:40.650Z,13.50
2023-05-19T14:23:09.035Z,12.05
2023-05-19T14:25:37.460Z,12.77
2023-05-19T14:28:07.562Z,11.57
2023-05-19T14:30:36.395Z,10.18
2023-05-19T14:33:05.315Z,10.73
2023-05-19T14:35:33.797Z,12.30
2023-05-19T14:38:02.797Z,11.07
2023-05-19T14:40:31.482Z,11.45
2023-05-19T14:43:01.235Z,16.67
2023-05-19T14:45:31.106Z,11.98
2023-05-19T14:48:00.237Z,13.75
2023-05-19T14:50:29.401Z,12.88
2023-05-19T14:52:58.286Z,13.85
2023-05-19T14:55:26.636Z,11.93
2023-05-19T14:57:57.039Z,12.32
2023-05-19T15:00:26.276Z,13.80
2023-05-19T15:02:56.751Z,12.10
2023-05-19T15:05:25.187Z,12.30
2023-05-19T15:07:53.994Z,12.65
2023-05-19T15:10:22.798Z,14.10
2023-05-19T15:12:51.343Z,11.07
2023-05-19T15:15:20.396Z,14.23
2023-05-19T15:17:48.798Z,13.07
2023-05-19T15:20:19.012Z,11.80
2023-05-19T15:22:47.351Z,14.35
2023-05-19T15:25:15.775Z,29.83
2023-05-19T15:27:44.255Z,14.63
2023-05-19T15:30:13.943Z,12.88
2023-05-19T15:32:42.449Z,11.30
2023-05-19T15:35:12.662Z,11.30
2023-05-19T15:40:13.840Z,12.23
2023-05-19T15:42:43.839Z,11.13
2023-05-19T15:45:18.524Z,12.75
2023-05-19T15:47:49.288Z,11.80
2023-05-19T15:50:20.397Z,11.07
2023-05-19T15:52:51.328Z,15.95
2023-05-19T15:55:21.019Z,13.13
2023-05-19T15:57:49.862Z,13.43
2023-05-19T16:00:18.302Z,11.07
2023-05-19T16:02:47.556Z,11.50
2023-05-19T16:05:17.525Z,13.32
2023-05-19T16:07:46.828Z,13.93
2023-05-19T16:10:21.740Z,22.02
2023-05-19T16:12:51.367Z,15.48
2023-05-19T16:15:24.368Z,11.57
2023-05-19T16:17:57.325Z,11.00
2023-05-19T16:20:31.703Z,10.38
2023-05-19T16:23:00.655Z,10.43
2023-05-19T16:25:31.487Z,12.27
2023-05-19T16:28:00.921Z,14.15
2023-05-19T16:30:30.122Z,15.30
2023-05-19T16:32:59.545Z,11.25
2023-05-19T16:35:29.788Z,11.23
2023-05-19T16:37:59.690Z,11.00
2023-05-19T16:40:31.123Z,10.30
2023-05-19T16:43:00.576Z,12.57
2023-05-19T16:45:29.616Z,9.75
2023-05-19T16:47:58.253Z,11.40
2023-05-19T16:50:27.644Z,10.95
2023-05-19T16:52:56.122Z,9.68
2023-05-19T16:55:25.374Z,11.82
2023-05-19T16:57:55.182Z,11.63
2023-05-19T17:00:23.696Z,10.23
2023-05-19T17:02:52.204Z,11.45
2023-05-19T17:05:20.571Z,12.07
2023-05-19T17:07:48.968Z,14.73
2023-05-19T17:10:18.515Z,9.55
2023-05-19T17:12:46.960Z,11.35
2023-05-19T17:15:16.785Z,36.70
2023-05-19T17:17:45.401Z,14.82
2023-05-19T17:20:14.505Z,23.88
2023-05-19T17:22:42.914Z,10.05
2023-05-19T17:25:11.713Z,9.52
2023-05-19T17:27:40.203Z,10.90
2023-05-19T17:30:10.015Z,10.00
2023-05-19T17:32:47.149Z,9.60
2023-05-19T17:35:16.008Z,9.23
2023-05-19T17:37:44.559Z,9.00
2023-05-19T17:40:13.736Z,11.90
2023-05-19T17:42:42.130Z,8.82
2023-05-19T17:45:12.496Z,9.00
2023-05-19T17:47:52.662Z,9.73
2023-05-19T17:50:48.031Z,7.78
2023-05-19T17:53:30.276Z,8.70
2023-05-19T17:56:01.430Z,10.88
2023-05-19T17:58:30.554Z,8.75
2023-05-19T18:00:59.337Z,8.02
2023-05-19T18:03:29.914Z,11.02
2023-05-19T18:05:59.171Z,12.18
2023-05-19T18:08:28.915Z,11.48
2023-05-19T18:10:59.714Z,9.68
2023-05-19T18:13:29.059Z,9.38
2023-05-19T18:15:59.641Z,13.20
2023-05-19T18:18:29.598Z,20.65
2023-05-19T18:20:58.496Z,14.77
2023-05-19T18:23:27.015Z,11.70
2023-05-19T18:25:55.874Z,11.70
2023-05-19T18:28:24.470Z,10.85
2023-05-19T18:31:00.943Z,143.57
2023-05-19T18:33:31.689Z,244.35
2023-05-19T18:38:28.725Z,30.20
2023-05-19T18:40:57.782Z,22.27
2023-05-19T18:43:26.147Z,16.25
2023-05-19T18:45:54.571Z,11.77
2023-05-19T18:48:23.215Z,10.82
2023-05-19T18:50:53.139Z,10.70
2023-05-19T18:53:22.687Z,146.05
2023-05-19T18:55:51.257Z,260.23
2023-05-19T18:58:19.688Z,160.15
2023-05-19T19:00:51.514Z,67.28
2023-05-19T19:03:19.861Z,23.05
2023-05-19T19:05:56.390Z,10.65
2023-05-19T19:08:27.434Z,8.52
2023-05-19T19:11:00.209Z,9.15
2023-05-19T19:13:29.710Z,11.43
2023-05-19T19:15:58.177Z,9.00
2023-05-19T19:18:27.077Z,13.23
2023-05-19T19:20:57.379Z,9.68
2023-05-19T19:23:26.062Z,26.20
2023-05-19T19:25:56.060Z,16.92
2023-05-19T19:28:24.447Z,15.50
2023-05-19T19:30:52.921Z,13.90
2023-05-19T19:33:21.384Z,11.63
2023-05-19T19:35:49.807Z,10.35
2023-05-19T19:38:19.696Z,37.47
2023-05-19T19:40:48.040Z,21.13
2023-05-19T19:43:16.356Z,17.23
2023-05-19T19:45:44.844Z,11.18
2023-05-19T19:48:14.121Z,10.98
2023-05-19T19:50:46.331Z,14.70
2023-05-19T19:53:15.561Z,11.60
2023-05-19T19:55:45.239Z,11.02
2023-05-19T19:58:13.838Z,11.48
2023-05-19T20:00:42.136Z,13.35
2023-05-19T20:03:10.694Z,14.60
2023-05-19T20:05:39.532Z,19.20
2023-05-19T20:08:08.065Z,11.23
2023-05-19T20:10:36.587Z,12.75
2023-05-19T20:13:06.511Z,15.00
2023-05-19T20:15:34.809Z,12.10
2023-05-19T20:18:03.155Z,13.90
2023-05-19T20:20:31.933Z,12.32
2023-05-19T20:23:00.755Z,13.90
2023-05-19T20:25:29.361Z,10.93
2023-05-19T20:27:57.709Z,9.88
2023-05-19T20:30:28.044Z,8.38
2023-05-19T20:32:56.441Z,9.65
2023-05-19T20:35:25.020Z,8.23
2023-05-19T20:37:53.321Z,8.48
2023-05-19T20:40:22.151Z,8.35
2023-05-19T20:42:50.529Z,8.30
2023-05-19T20:45:19.464Z,8.90
2023-05-19T20:47:49.358Z,12.88
2023-05-19T20:50:18.192Z,24.13
2023-05-19T20:52:46.516Z,15.38
2023-05-19T20:55:15.541Z,12.05
2023-05-19T20:57:44.732Z,14.93
2023-05-19T21:00:14.632Z,10.60
2023-05-19T21:02:43.062Z,8.03
2023-05-19T21:05:13.471Z,8.93
2023-05-19T21:07:42.339Z,7.25
2023-05-19T21:12:42.730Z,6.85
2023-05-19T21:15:12.190Z,7.32
2023-05-19T21:17:41.094Z,7.60
2023-05-19T21:20:10.981Z,6.78
2023-05-19T21:22:40.944Z,7.10
2023-05-19T21:25:10.051Z,6.90
2023-05-19T21:27:39.529Z,6.47
2023-05-19T21:30:09.826Z,7.10
2023-05-19T21:32:38.852Z,8.50
2023-05-19T21:35:07.774Z,8.20
2023-05-19T21:37:36.568Z,8.07
2023-05-19T21:40:07.967Z,17.83
2023-05-19T21:42:36.797Z,8.07
2023-05-19T21:45:06.506Z,9.32
2023-05-19T21:47:35.245Z,6.65
2023-05-19T21:50:03.697Z,6.47
2023-05-19T21:52:32.366Z,6.25
2023-05-19T21:55:00.590Z,6.30
2023-05-19T21:57:30.674Z,7.82
2023-05-19T21:59:58.984Z,8.13
2023-05-19T22:02:28.066Z,6.65
2023-05-19T22:04:56.507Z,6.57
2023-05-19T22:07:27.026Z,6.65
2023-05-19T22:12:24.338Z,6.60
2023-05-19T22:14:54.481Z,8.52
2023-05-19T22:17:23.086Z,6.05
2023-05-19T22:19:51.780Z,6.32
2023-05-19T22:22:20.510Z,6.47
2023-05-19T22:24:48.985Z,7.82
2023-05-19T22:27:17.482Z,6.60
2023-05-19T22:29:46.361Z,6.57
2023-05-19T22:32:18.025Z,6.18
2023-05-19T22:34:46.764Z,5.88
2023-05-19T22:37:15.258Z,6.53
2023-05-19T22:39:43.985Z,6.82
2023-05-19T22:42:12.246Z,7.68
2023-05-19T22:44:40.602Z,6.00
2023-05-19T22:47:13.400Z,6.55
2023-05-19T22:49:43.452Z,6.20
2023-05-19T22:52:12.798Z,6.53
2023-05-19T22:54:41.117Z,6.45
2023-05-19T22:57:09.542Z,6.40
2023-05-19T22:59:38.294Z,7.57
2023-05-19T23:02:06.878Z,5.82
2023-05-19T23:04:37.027Z,7.80
2023-05-19T23:07:06.868Z,6.18
2023-05-19T23:09:35.741Z,6.75
2023-05-19T23:12:04.067Z,7.22
2023-05-19T23:14:33.462Z,6.28
2023-05-19T23:17:03.621Z,6.72
2023-05-19T23:19:33.492Z,6.35
2023-05-19T23:22:01.946Z,6.78
2023-05-19T23:24:32.104Z,7.47
2023-05-19T23:27:00.928Z,6.45
2023-05-19T23:29:29.630Z,7.28
2023-05-19T23:31:58.462Z,6.50
2023-05-19T23:34:26.792Z,7.93
2023-05-19T23:36:56.352Z,10.52
2023-05-19T23:39:25.446Z,7.53
2023-05-19T23:41:56.328Z,7.22
2023-05-19T23:46:53.002Z,6.47
2023-05-19T23:49:21.404Z,6.55
2023-05-19T23:51:50.481Z,6.35
2023-05-19T23:54:18.817Z,6.30
2023-05-19T23:56:47.355Z,6.28
2023-05-19T23:59:17.095Z,6.38
